Time;durP1;ratioP1;P1;durP2;ratioP2;P2;SDS_P1;SDS_P2;PMS_P1;PMS_P2;Temp;Humidity;BMP_temperature;BMP_pressure;BME280_temperature;BME280_humidity;BME280_pressure;Samples;Min_cycle;Max_cycle;Signal;HPM_P1;HPM_P2
2021/12/30 00:00:45;;;;;;;7.72;3.10;;;13.20;78.40;;;;;;5052414;28;20036;-89
2021/12/30 00:03:33;;;;;;;6.72;3.53;;;13.10;78.50;;;;;;5043579;28;20040;-88
2021/12/30 00:05:59;;;;;;;7.22;3.55;;;13.10;78.30;;;;;;5053646;28;20040;-87
2021/12/30 00:08:36;;;;;;;6.25;3.50;;;13.10;78.30;;;;;;5047952;28;20025;-88
2021/12/30 00:11:14;;;;;;;8.85;3.92;;;13.10;78.30;;;;;;5044874;28;20035;-89
2021/12/30 00:13:45;;;;;;;7.35;3.78;;;13.10;78.40;;;;;;5052366;28;20099;-88
2021/12/30 00:16:22;;;;;;;7.57;3.70;;;13.10;78.30;;;;;;5046606;28;20053;-89
2021/12/30 00:18:58;;;;;;;7.85;3.97;;;13.10;78.30;;;;;;5055771;28;20029;-90
2021/12/30 00:21:33;;;;;;;9.75;4.10;;;13.10;78.30;;;;;;5055243;28;20031;-89
2021/12/30 00:24:05;;;;;;;7.40;4.13;;;13.10;78.30;;;;;;5053788;28;20396;-90
2021/12/30 00:26:33;;;;;;;6.85;3.83;;;13.10;78.30;;;;;;5054452;28;20031;-88
2021/12/30 00:29:20;;;;;;;8.13;3.97;;;13.10;78.40;;;;;;5055388;28;20518;-88
2021/12/30 00:31:51;;;;;;;;;;;13.10;79.00;;;;;;5055118;28;20075;-89
2021/12/30 00:34:31;;;;;;;7.03;3.70;;;13.10;78.30;;;;;;5064333;28;20018;-89
2021/12/30 00:37:32;;;;;;;7.05;3.75;;;13.10;78.20;;;;;;5042753;28;20051;-88
2021/12/30 00:40:11;;;;;;;8.02;3.90;;;13.00;78.30;;;;;;5039383;28;20052;-88
2021/12/30 00:42:47;;;;;;;9.63;4.25;;;13.00;78.40;;;;;;5045691;28;20052;-89
2021/12/30 00:45:18;;;;;;;7.20;3.97;;;13.00;78.40;;;;;;5054484;28;20086;-90
2021/12/30 00:47:58;;;;;;;6.10;3.47;;;13.00;78.40;;;;;;5045171;28;20084;-88
2021/12/30 00:50:30;;;;;;;7.60;4.05;;;13.00;78.40;;;;;;5039170;28;20033;-89
2021/12/30 00:53:00;;;;;;;10.70;4.50;;;13.00;79.00;;;;;;5047072;28;20111;-88
2021/12/30 00:55:40;;;;;;;7.85;4.38;;;13.00;78.30;;;;;;5032296;28;20397;-88
2021/12/30 00:58:12;;;;;;;7.85;4.45;;;13.00;78.40;;;;;;5069816;28;20044;-88
2021/12/30 01:00:42;;;;;;;8.02;4.32;;;13.00;78.40;;;;;;5070630;28;20021;-89
2021/12/30 01:03:12;;;;;;;6.38;3.92;;;13.10;78.50;;;;;;5051529;28;20025;-88
2021/12/30 01:05:38;;;;;;;7.22;3.85;;;13.00;78.40;;;;;;5053355;28;20036;-88
2021/12/30 01:08:09;;;;;;;7.32;3.97;;;13.00;78.40;;;;;;5051380;28;20021;-88
2021/12/30 01:10:37;;;;;;;7.10;4.60;;;13.00;78.50;;;;;;5070388;28;20104;-88
2021/12/30 01:13:17;;;;;;;6.55;3.95;;;13.10;78.50;;;;;;5050032;28;20875;-86
2021/12/30 01:16:00;;;;;;;6.93;3.80;;;13.10;78.50;;;;;;5048880;28;20049;-88
2021/12/30 01:18:53;;;;;;;;;;;;;;;;;;;;;
2021/12/30 01:21:49;;;;;;;7.68;4.30;;;13.10;78.50;;;;;;5072224;28;20029;-88
2021/12/30 01:24:23;;;;;;;7.72;4.00;;;13.00;78.40;;;;;;5070701;28;20032;-89
2021/12/30 01:26:56;;;;;;;8.02;3.88;;;13.00;78.30;;;;;;5052152;28;20028;-89
2021/12/30 01:29:38;;;;;;;7.20;4.32;;;13.10;78.50;;;;;;5045970;28;20483;-88
2021/12/30 01:32:09;;;;;;;6.38;3.95;;;13.10;78.50;;;;;;5049557;28;20048;-89
2021/12/30 01:34:48;;;;;;;9.43;4.00;;;13.10;78.50;;;;;;5064943;28;20024;-89
2021/12/30 01:37:24;;;;;;;6.70;3.67;;;13.10;78.50;;;;;;5070230;28;20046;-89
2021/12/30 01:40:11;;;;;;;8.38;4.10;;;13.10;78.50;;;;;;5051662;28;20024;-87
2021/12/30 01:42:43;;;;;;;6.80;4.07;;;13.10;78.60;;;;;;5068317;28;20025;-89
2021/12/30 01:45:14;;;;;;;8.45;3.80;;;13.10;78.40;;;;;;5055242;28;20539;-88
2021/12/30 01:47:54;;;;;;;7.45;3.88;;;13.10;78.40;;;;;;5054656;28;20078;-90
2021/12/30 01:50:32;;;;;;;7.78;3.83;;;13.10;78.40;;;;;;5056203;28;20052;-88
2021/12/30 01:56:28;;;;;;;6.38;2.95;;;13.10;78.40;;;;;;5063722;28;20040;-88
2021/12/30 01:59:10;;;;;;;7.78;3.55;;;13.10;78.40;;;;;;5048916;28;20124;-88
2021/12/30 02:01:48;;;;;;;9.40;4.20;;;13.20;78.40;;;;;;5040617;28;20048;-89
2021/12/30 02:04:33;;;;;;;8.90;3.90;;;13.20;78.40;;;;;;5054074;28;20060;-89
2021/12/30 02:07:09;;;;;;;7.75;3.50;;;13.20;78.50;;;;;;5050910;28;20060;-88
2021/12/30 02:09:53;;;;;;;8.45;3.63;;;13.20;78.40;;;;;;5041452;28;20028;-88
2021/12/30 02:13:02;;;;;;;7.85;3.70;;;13.20;78.40;;;;;;5073735;28;20024;-89
2021/12/30 02:15:40;;;;;;;7.07;3.50;;;13.20;78.40;;;;;;5046734;28;20146;-88
2021/12/30 02:18:16;;;;;;;8.73;3.65;;;13.20;78.30;;;;;;5046121;28;20539;-89
2021/12/30 02:21:17;;;;;;;7.97;3.47;;;13.20;78.40;;;;;;5072744;28;20043;-89
2021/12/30 02:24:09;;;;;;;;;;;;;;;;;;;;;
2021/12/30 02:26:56;;;;;;;6.72;4.07;;;13.20;78.30;;;;;;5071580;28;20031;-88
2021/12/30 02:29:53;;;;;;;8.98;4.05;;;13.20;78.30;;;;;;5054106;28;20031;-88
2021/12/30 02:32:32;;;;;;;7.80;3.78;;;13.20;78.30;;;;;;5073220;28;20035;-88
2021/12/30 02:35:23;;;;;;;7.57;4.22;;;13.20;78.30;;;;;;5073100;28;20037;-89
2021/12/30 02:41:13;;;;;;;9.27;4.07;;;13.30;78.40;;;;;;5073516;28;20041;-89
2021/12/30 02:43:57;;;;;;;8.13;3.47;;;13.30;78.40;;;;;;5048721;28;20050;-89
2021/12/30 02:46:41;;;;;;;7.72;3.58;;;13.30;78.40;;;;;;5048554;28;20534;-89
2021/12/30 02:49:27;;;;;;;7.43;3.90;;;13.30;78.40;;;;;;5047367;28;20108;-89
2021/12/30 02:52:12;;;;;;;7.10;4.20;;;13.30;78.50;;;;;;5048491;28;20038;-88
2021/12/30 02:54:53;;;;;;;6.40;3.65;;;13.30;78.40;;;;;;5039518;28;20029;-89
2021/12/30 02:57:27;;;;;;;7.53;3.85;;;13.40;78.40;;;;;;5072953;28;20067;-89
2021/12/30 03:00:18;;;;;;;8.65;4.30;;;13.30;78.40;;;;;;5072721;28;20060;-88
2021/12/30 03:03:08;;;;;;;8.38;3.83;;;13.40;78.40;;;;;;5065155;28;20032;-89
2021/12/30 03:06:12;;;;;;;7.47;3.95;;;13.40;78.40;;;;;;5056361;28;20534;-89
2021/12/30 03:08:50;;;;;;;7.35;3.80;;;13.40;78.60;;;;;;5056643;28;20063;-88
2021/12/30 03:11:33;;;;;;;7.85;4.47;;;13.40;78.40;;;;;;5056838;28;20135;-89
2021/12/30 03:14:36;;;;;;;;;;;;;;;;;;;;;
2021/12/30 03:17:34;;;;;;;;;;;13.40;78.40;;;;;;5065621;28;20071;-89
2021/12/30 03:20:33;;;;;;;;;;;;;;;;;;;;;
2021/12/30 03:23:31;;;;;;;7.72;4.75;;;13.40;78.30;;;;;;5066037;28;20534;-90
2021/12/30 03:26:37;;;;;;;;;;;;;;;;;;;;;
2021/12/30 03:29:30;;;;;;;7.97;4.55;;;13.40;78.40;;;;;;5060243;28;20074;-89
2021/12/30 03:32:15;;;;;;;7.13;4.50;;;13.40;78.40;;;;;;5047963;28;20082;-90
2021/12/30 03:35:24;;;;;;;7.72;4.32;;;13.50;78.40;;;;;;5072244;28;20039;-88
2021/12/30 03:38:04;;;;;;;;;;;;;;;;;;;;;
2021/12/30 03:40:48;;;;;;;9.32;4.70;;;13.50;78.40;;;;;;5072297;28;20059;-89
2021/12/30 03:43:29;;;;;;;7.15;4.22;;;13.50;78.40;;;;;;5044749;28;20500;-89
2021/12/30 03:46:24;;;;;;;7.53;4.55;;;13.50;78.50;;;;;;5049151;28;20540;-88
2021/12/30 03:49:00;;;;;;;9.10;4.80;;;13.50;78.50;;;;;;5046506;28;20028;-88
2021/12/30 03:51:45;;;;;;;7.82;5.00;;;13.50;78.40;;;;;;5072377;28;20029;-87
2021/12/30 03:54:16;;;;;;;7.13;4.55;;;13.60;78.40;;;;;;5055313;28;20094;-87
2021/12/30 03:57:07;;;;;;;9.18;5.40;;;13.60;78.40;;;;;;5039050;28;20039;-87
2021/12/30 03:59:35;;;;;;;8.13;4.80;;;13.50;78.40;;;;;;5055640;28;20016;-88
2021/12/30 04:02:13;;;;;;;9.30;5.30;;;13.60;78.40;;;;;;5055350;28;20021;-89
2021/12/30 04:05:20;;;;;;;8.32;4.72;;;13.60;78.40;;;;;;5054430;28;20071;-88
2021/12/30 04:08:11;;;;;;;7.93;5.32;;;13.60;78.50;;;;;;5072011;28;20079;-89
2021/12/30 04:10:49;;;;;;;8.07;5.43;;;13.60;78.30;;;;;;5052985;28;20016;-88
2021/12/30 04:13:27;;;;;;;9.23;5.07;;;13.60;78.40;;;;;;5055891;28;20043;-88
2021/12/30 04:16:14;;;;;;;7.72;4.97;;;13.60;78.40;;;;;;5051377;28;20039;-88
2021/12/30 04:21:58;;;;;;;;;;;;;;;;;;;;;
2021/12/30 04:25:07;;;;;;;7.03;4.40;;;13.60;78.40;;;;;;5071694;28;20123;-88
2021/12/30 04:27:58;;;;;;;7.85;4.72;;;13.60;78.30;;;;;;5052226;28;20401;-88
2021/12/30 04:30:39;;;;;;;6.53;4.32;;;13.60;78.50;;;;;;5050020;28;20024;-88
2021/12/30 04:33:28;;;;;;;8.20;5.22;;;13.60;78.30;;;;;;5071160;28;20029;-88
2021/12/30 04:36:07;;;;;;;6.40;4.43;;;13.60;78.30;;;;;;5054216;28;20449;-87
2021/12/30 04:38:46;;;;;;;8.05;4.97;;;13.70;78.40;;;;;;5071628;28;20039;-87
2021/12/30 04:41:15;;;;;;;7.50;4.93;;;13.70;78.40;;;;;;5048417;28;20035;-86
2021/12/30 04:44:03;;;;;;;;;;;;;;;;;;;;;
2021/12/30 04:46:53;;;;;;;8.32;5.38;;;13.70;78.40;;;;;;5061979;28;20032;-87
2021/12/30 04:49:45;;;;;;;6.97;4.65;;;13.70;78.40;;;;;;5050554;28;20039;-87
2021/12/30 04:52:26;;;;;;;7.85;5.28;;;13.70;78.40;;;;;;5046558;28;20036;-87
2021/12/30 04:55:22;;;;;;;7.03;5.18;;;13.70;78.40;;;;;;5048715;28;20086;-87
2021/12/30 04:57:58;;;;;;;8.02;4.90;;;13.70;78.40;;;;;;5051330;28;20419;-87
2021/12/30 05:00:29;;;;;;;7.63;5.40;;;13.80;78.40;;;;;;5066139;28;20035;-88
2021/12/30 05:03:16;;;;;;;7.47;4.70;;;13.80;78.40;;;;;;5042475;28;20039;-87
2021/12/30 05:06:11;;;;;;;6.93;4.78;;;13.80;78.40;;;;;;5054529;28;20036;-87
2021/12/30 05:08:49;;;;;;;8.02;5.20;;;13.80;78.50;;;;;;5051263;28;20067;-88
2021/12/30 05:11:30;;;;;;;7.95;4.95;;;13.80;78.30;;;;;;5073128;28;20037;-89
2021/12/30 05:14:11;;;;;;;6.30;4.35;;;13.80;78.40;;;;;;5056884;28;20053;-88
2021/12/30 05:17:08;;;;;;;6.38;4.82;;;13.80;78.30;;;;;;5043594;28;20481;-87
2021/12/30 05:19:42;;;;;;;6.22;4.63;;;13.80;79.10;;;;;;5043818;28;20102;-87
2021/12/30 05:22:43;;;;;;;7.60;4.68;;;13.80;78.30;;;;;;5074186;28;20024;-89
2021/12/30 05:25:19;;;;;;;6.75;4.30;;;13.80;78.40;;;;;;5065173;28;20385;-91
2021/12/30 05:27:56;;;;;;;6.40;4.57;;;13.90;78.40;;;;;;5066471;28;20029;-88
2021/12/30 05:30:26;;;;;;;6.20;4.22;;;13.90;78.40;;;;;;5069568;28;20111;-88
2021/12/30 05:33:00;;;;;;;6.32;4.60;;;13.90;78.40;;;;;;5055335;28;20032;-88
2021/12/30 05:35:41;;;;;;;6.60;4.40;;;13.90;78.40;;;;;;5051747;28;20091;-89
2021/12/30 05:38:23;;;;;;;6.60;4.53;;;13.90;78.30;;;;;;5053400;28;20507;-88
2021/12/30 05:41:02;;;;;;;6.00;4.35;;;13.90;78.30;;;;;;5043913;28;20037;-89
2021/12/30 05:43:36;;;;;;;6.45;4.47;;;13.90;78.30;;;;;;5049544;28;20040;-88
2021/12/30 05:46:08;;;;;;;6.85;4.60;;;13.90;78.30;;;;;;5074434;28;20036;-88
2021/12/30 05:48:45;;;;;;;7.38;4.93;;;14.00;78.30;;;;;;5059074;28;20035;-87
2021/12/30 05:51:21;;;;;;;6.00;4.03;;;14.00;78.30;;;;;;5060218;28;20039;-87
2021/12/30 05:53:57;;;;;;;5.65;4.25;;;14.00;78.30;;;;;;5056543;28;20127;-88
2021/12/30 05:56:33;;;;;;;6.15;4.53;;;14.00;78.40;;;;;;5034069;28;20090;-88
2021/12/30 05:59:19;;;;;;;5.10;3.70;;;14.00;78.30;;;;;;5057132;28;20028;-89
2021/12/30 06:02:03;;;;;;;5.97;4.28;;;14.00;78.40;;;;;;5057009;28;20158;-87
2021/12/30 06:04:32;;;;;;;5.50;3.90;;;14.00;78.40;;;;;;5037732;28;20149;-88
2021/12/30 06:07:05;;;;;;;5.20;3.90;;;14.00;78.20;;;;;;5050169;28;20021;-87
2021/12/30 06:09:58;;;;;;;5.57;3.72;;;14.00;78.30;;;;;;5067970;28;20025;-88
2021/12/30 06:12:49;;;;;;;;;;;;;;;;;;;;;
2021/12/30 06:15:27;;;;;;;4.88;3.28;;;14.00;78.20;;;;;;5072885;28;20033;-87
2021/12/30 06:18:16;;;;;;;4.22;3.10;;;14.10;78.30;;;;;;5051984;28;20068;-86
2021/12/30 06:20:46;;;;;;;5.53;3.58;;;14.10;78.40;;;;;;5036018;28;20036;-89
2021/12/30 06:23:14;;;;;;;4.88;3.50;;;14.10;78.20;;;;;;5073525;28;20025;-88
2021/12/30 06:25:52;;;;;;;5.20;3.55;;;14.10;78.30;;;;;;5063930;28;20311;-87
2021/12/30 06:28:18;;;;;;;4.95;3.58;;;14.10;78.20;;;;;;5052436;28;20040;-86
2021/12/30 06:30:44;;;;;;;4.70;3.20;;;14.10;78.20;;;;;;5056915;28;20495;-86
2021/12/30 06:33:15;;;;;;;4.45;3.38;;;14.10;78.20;;;;;;5073192;28;20033;-89
2021/12/30 06:35:46;;;;;;;4.38;3.30;;;14.10;78.20;;;;;;5055666;28;20056;-85
2021/12/30 06:38:23;;;;;;;5.90;3.90;;;14.20;78.30;;;;;;5045609;28;20108;-87
2021/12/30 06:40:55;;;;;;;5.15;3.75;;;14.20;78.30;;;;;;5049454;28;20029;-87
2021/12/30 06:43:30;;;;;;;4.72;3.40;;;14.20;78.20;;;;;;5042720;28;20036;-87
2021/12/30 06:46:11;;;;;;;;;;;;;;;;;;;;;
2021/12/30 06:48:44;;;;;;;5.40;3.85;;;14.20;78.30;;;;;;5060056;28;20359;-86
2021/12/30 06:51:12;;;;;;;5.90;4.07;;;14.20;78.20;;;;;;5052740;28;20025;-87
2021/12/30 06:53:41;;;;;;;5.20;4.00;;;14.20;78.20;;;;;;5055471;28;20017;-88
2021/12/30 06:56:12;;;;;;;6.15;4.00;;;14.30;78.20;;;;;;5050488;28;20048;-86
2021/12/30 06:58:41;;;;;;;6.15;4.20;;;14.30;78.20;;;;;;5053735;28;20021;-88
2021/12/30 07:01:09;;;;;;;6.30;4.50;;;14.30;78.20;;;;;;5056565;28;20025;-89
2021/12/30 07:03:38;;;;;;;5.20;3.90;;;14.30;78.20;;;;;;5049742;28;20078;-89
2021/12/30 07:06:04;;;;;;;5.25;4.35;;;14.30;78.20;;;;;;5072670;28;20024;-89
2021/12/30 07:08:35;;;;;;;5.97;3.90;;;14.30;78.20;;;;;;5046470;28;20051;-88
2021/12/30 07:11:01;;;;;;;5.68;3.78;;;14.30;78.30;;;;;;5044378;28;20064;-89
2021/12/30 07:13:29;;;;;;;5.80;4.22;;;14.30;78.20;;;;;;5052638;28;20120;-88
2021/12/30 07:15:58;;;;;;;5.10;3.85;;;14.30;78.20;;;;;;5065136;28;20036;-89
2021/12/30 07:18:31;;;;;;;5.18;3.83;;;14.30;78.20;;;;;;5065088;28;20090;-89
2021/12/30 07:20:57;;;;;;;4.88;3.50;;;14.40;78.20;;;;;;5052461;28;20130;-89
2021/12/30 07:23:25;;;;;;;5.53;3.70;;;14.40;78.20;;;;;;5056238;28;20059;-89
2021/12/30 07:26:13;;;;;;;5.97;4.30;;;14.40;78.20;;;;;;5040774;28;20040;-90
2021/12/30 07:28:47;;;;;;;4.57;3.42;;;14.40;78.20;;;;;;5053779;28;20048;-90
2021/12/30 07:31:30;;;;;;;4.80;3.70;;;14.40;78.20;;;;;;5051753;28;20116;-90
2021/12/30 07:34:13;;;;;;;4.95;3.70;;;14.40;78.10;;;;;;5073087;28;20028;-90
2021/12/30 07:36:44;;;;;;;4.57;3.30;;;14.40;78.20;;;;;;5048065;28;20024;-89
2021/12/30 07:39:24;;;;;;;5.00;3.78;;;14.40;78.20;;;;;;5066019;28;20488;-88
2021/12/30 07:41:50;;;;;;;5.40;3.60;;;14.40;78.20;;;;;;5038758;28;20024;-88
2021/12/30 07:44:23;;;;;;;5.85;3.75;;;14.50;78.20;;;;;;5069670;28;20052;-88
2021/12/30 07:46:52;;;;;;;4.93;3.80;;;14.40;78.20;;;;;;5039070;28;20028;-89
2021/12/30 07:49:18;;;;;;;4.57;3.40;;;14.50;78.20;;;;;;5054633;28;20485;-89
2021/12/30 07:52:07;;;;;;;4.25;3.38;;;14.50;78.20;;;;;;5075642;28;20032;-87
2021/12/30 07:54:33;;;;;;;4.80;3.75;;;14.50;78.20;;;;;;5056484;28;20032;-88
2021/12/30 07:57:05;;;;;;;5.38;4.20;;;14.50;78.20;;;;;;5044314;28;20033;-88
2021/12/30 07:59:32;;;;;;;5.25;3.85;;;14.50;78.80;;;;;;5047430;28;20020;-87
2021/12/30 08:01:58;;;;;;;4.90;3.65;;;14.50;78.10;;;;;;5048325;28;20017;-87
2021/12/30 08:04:27;;;;;;;5.43;3.95;;;14.50;78.10;;;;;;5043820;28;20036;-88
2021/12/30 08:06:53;;;;;;;5.35;4.35;;;14.50;78.10;;;;;;5043856;28;20017;-89
2021/12/30 08:09:19;;;;;;;5.68;4.03;;;14.50;78.10;;;;;;5053080;28;20036;-86
2021/12/30 08:11:49;;;;;;;6.43;4.45;;;14.50;78.10;;;;;;5063090;28;20427;-87
2021/12/30 08:14:15;;;;;;;5.00;3.92;;;14.60;78.20;;;;;;5048998;28;20098;-85
2021/12/30 08:16:44;;;;;;;5.82;4.30;;;14.60;78.10;;;;;;5050341;28;20033;-86
2021/12/30 08:19:10;;;;;;;5.13;4.13;;;14.60;78.10;;;;;;5067557;28;20024;-86
2021/12/30 08:21:45;;;;;;;5.80;4.00;;;14.60;78.10;;;;;;5053863;28;20119;-86
2021/12/30 08:24:13;;;;;;;;;;;14.60;78.10;;;;;;5049644;28;20367;-91
2021/12/30 08:26:41;;;;;;;5.13;3.60;;;14.60;78.10;;;;;;5053155;28;19908;-85
2021/12/30 08:29:07;;;;;;;5.22;4.00;;;14.60;77.90;;;;;;5049144;28;20048;-85
2021/12/30 08:31:35;;;;;;;5.53;3.88;;;14.60;78.10;;;;;;5054158;28;20112;-85
2021/12/30 08:34:05;;;;;;;5.95;3.85;;;14.60;78.20;;;;;;5059401;28;20362;-85
2021/12/30 08:36:32;;;;;;;5.07;3.40;;;14.70;78.20;;;;;;5053992;28;20078;-84
2021/12/30 08:39:00;;;;;;;4.90;3.72;;;14.70;78.20;;;;;;5057312;28;20107;-86
2021/12/30 08:41:28;;;;;;;5.20;4.05;;;14.70;78.20;;;;;;5074246;28;20032;-84
2021/12/30 08:43:57;;;;;;;4.82;3.45;;;14.70;78.20;;;;;;5065444;28;20081;-85
2021/12/30 08:46:22;;;;;;;5.18;3.80;;;14.70;78.20;;;;;;5066681;28;20032;-82
2021/12/30 08:48:48;;;;;;;5.03;3.50;;;14.70;78.10;;;;;;5047724;28;20444;-83
2021/12/30 08:51:14;;;;;;;4.90;3.60;;;14.70;78.10;;;;;;5039830;28;20376;-83
2021/12/30 08:53:42;;;;;;;4.97;3.78;;;14.70;78.10;;;;;;5046650;28;20029;-84
2021/12/30 08:56:11;;;;;;;4.90;3.72;;;14.70;78.10;;;;;;5057954;28;20105;-82
2021/12/30 08:58:41;;;;;;;5.25;3.75;;;14.70;78.10;;;;;;5069535;28;20025;-87
2021/12/30 09:01:22;;;;;;;;;;;;;;;;;;;;;
2021/12/30 09:04:04;;;;;;;4.55;3.25;;;14.80;78.20;;;;;;5047562;28;20028;-82
2021/12/30 09:07:45;;;;;;;4.35;3.13;;;14.80;78.10;;;;;;5058129;28;20086;-82
2021/12/30 09:10:30;;;;;;;3.83;2.80;;;14.80;78.20;;;;;;5054833;28;20076;-81
2021/12/30 09:13:04;;;;;;;4.05;3.13;;;14.80;78.10;;;;;;5072071;28;20118;-85
2021/12/30 09:18:20;;;;;;;4.18;3.10;;;14.80;78.10;;;;;;5083454;28;20052;-85
2021/12/30 09:20:56;;;;;;;3.78;2.75;;;14.80;78.10;;;;;;5052281;28;20028;-81
2021/12/30 09:23:23;;;;;;;3.80;2.63;;;14.90;78.10;;;;;;5057623;28;20119;-85
2021/12/30 09:25:59;;;;;;;3.78;3.00;;;14.90;78.20;;;;;;5064881;28;20035;-90
2021/12/30 09:28:32;;;;;;;3.97;3.00;;;14.90;78.10;;;;;;5056940;28;20031;-90
2021/12/30 09:30:58;;;;;;;5.43;3.58;;;14.90;78.10;;;;;;5056424;28;20707;-86
2021/12/30 09:33:37;;;;;;;4.65;2.90;;;14.90;78.10;;;;;;5057286;28;20054;-83
2021/12/30 09:36:12;;;;;;;3.17;2.78;;;14.90;78.10;;;;;;5039245;28;20053;-83
2021/12/30 09:38:37;;;;;;;3.67;2.90;;;14.90;78.10;;;;;;5040887;28;20042;-83
2021/12/30 09:41:04;;;;;;;5.40;3.08;;;15.00;78.00;;;;;;5055658;28;20120;-83
2021/12/30 09:43:30;;;;;;;3.70;2.70;;;15.00;78.10;;;;;;5047551;28;20487;-85
2021/12/30 09:46:04;;;;;;;4.38;3.10;;;15.00;78.00;;;;;;5057208;28;20032;-85
2021/12/30 09:48:30;;;;;;;3.58;2.60;;;15.00;78.00;;;;;;5056720;28;20056;-85
2021/12/30 09:50:58;;;;;;;3.78;2.53;;;15.00;78.00;;;;;;5056835;28;20056;-83
2021/12/30 09:53:26;;;;;;;4.03;2.75;;;15.10;78.10;;;;;;5040553;28;20028;-78
2021/12/30 09:55:59;;;;;;;4.93;3.25;;;15.10;78.10;;;;;;5064828;28;20032;-80
2021/12/30 09:58:27;;;;;;;3.60;2.53;;;15.00;78.00;;;;;;5073206;28;20028;-83
2021/12/30 10:00:53;;;;;;;2.92;2.35;;;15.10;78.10;;;;;;5056732;28;20016;-85
2021/12/30 10:03:24;;;;;;;2.95;2.25;;;15.10;78.10;;;;;;5056056;28;20028;-84
2021/12/30 10:05:53;;;;;;;3.65;2.58;;;15.10;78.10;;;;;;5047427;28;20025;-86
2021/12/30 10:08:26;;;;;;;3.17;2.60;;;15.10;78.10;;;;;;5040538;28;20036;-85
2021/12/30 10:11:11;;;;;;;;;;;;;;;;;;;;;
2021/12/30 10:13:49;;;;;;;3.13;2.40;;;15.10;78.00;;;;;;5072484;28;20041;-85
2021/12/30 10:16:21;;;;;;;3.22;2.40;;;15.20;78.10;;;;;;5040291;28;20052;-84
2021/12/30 10:18:53;;;;;;;3.72;2.40;;;15.20;78.00;;;;;;5031889;28;20056;-79
2021/12/30 10:22:17;;;;;;;3.15;2.20;;;15.20;78.10;;;;;;5055635;28;20046;-91
2021/12/30 10:25:19;;;;;;;3.70;2.23;;;15.20;78.10;;;;;;5038544;28;20467;-84
2021/12/30 10:27:38;;;;;;;2.20;2.00;;;15.30;78.00;;;;;;5069134;28;20115;-86
2021/12/30 10:30:05;;;;;;;2.90;1.90;;;15.20;77.90;;;;;;5052353;28;20159;-86
2021/12/30 10:32:31;;;;;;;3.22;2.00;;;15.20;78.00;;;;;;5055870;28;20142;-84
2021/12/30 10:35:14;;;;;;;2.60;2.00;;;15.30;78.00;;;;;;5055706;28;20025;-85
2021/12/30 10:38:08;;;;;;;3.40;1.90;;;15.30;78.20;;;;;;5072218;28;20031;-86
2021/12/30 10:40:41;;;;;;;2.30;1.90;;;15.30;78.20;;;;;;5052556;28;20189;-83
2021/12/30 10:43:27;;;;;;;2.42;1.80;;;15.30;78.00;;;;;;5041267;28;20033;-86
2021/12/30 10:46:07;;;;;;;3.15;2.05;;;15.30;78.00;;;;;;5072635;28;20031;-87
2021/12/30 10:48:50;;;;;;;2.60;1.90;;;15.30;78.00;;;;;;5053024;28;20020;-86
2021/12/30 10:51:48;;;;;;;3.10;1.88;;;15.30;78.00;;;;;;5056278;28;20036;-88
2021/12/30 10:54:33;;;;;;;2.50;1.63;;;15.40;78.00;;;;;;5064907;28;20396;-88
2021/12/30 10:57:20;;;;;;;2.55;1.67;;;15.40;77.90;;;;;;5069220;28;20043;-86
2021/12/30 10:59:57;;;;;;;3.60;2.22;;;15.40;78.00;;;;;;5066395;28;20035;-86
2021/12/30 11:02:27;;;;;;;2.13;1.73;;;15.40;78.00;;;;;;5036330;28;20044;-86
2021/12/30 11:05:01;;;;;;;2.38;1.92;;;15.40;78.00;;;;;;5054340;28;20036;-86
2021/12/30 11:07:44;;;;;;;3.90;1.90;;;15.40;77.90;;;;;;5072679;28;20499;-87
2021/12/30 11:10:13;;;;;;;2.15;1.80;;;15.40;78.00;;;;;;5055689;28;20047;-85
2021/12/30 11:12:47;;;;;;;5.57;2.30;;;15.50;77.90;;;;;;5054909;28;20039;-86
2021/12/30 11:15:34;;;;;;;2.95;1.70;;;15.50;78.00;;;;;;5056114;28;20037;-85
2021/12/30 11:18:23;;;;;;;2.28;1.80;;;15.40;78.00;;;;;;5068055;28;20052;-84
2021/12/30 11:20:51;;;;;;;2.83;1.75;;;15.50;77.90;;;;;;5055269;28;20465;-87
2021/12/30 11:23:20;;;;;;;2.08;1.60;;;15.50;77.90;;;;;;5038836;28;20036;-86
2021/12/30 11:25:51;;;;;;;2.88;1.90;;;15.50;77.90;;;;;;5056335;28;20032;-86
2021/12/30 11:28:22;;;;;;;2.97;1.90;;;15.50;77.80;;;;;;5050070;28;20048;-87
2021/12/30 11:30:53;;;;;;;2.63;1.83;;;15.50;77.90;;;;;;5038220;28;20132;-87
2021/12/30 11:33:20;;;;;;;3.88;1.80;;;15.50;77.80;;;;;;5055959;28;20040;-86
2021/12/30 11:35:51;;;;;;;3.13;1.73;;;15.50;77.80;;;;;;5052283;28;20041;-86
2021/12/30 11:38:18;;;;;;;2.92;2.00;;;15.50;77.80;;;;;;5046694;28;20075;-85
2021/12/30 11:40:46;;;;;;;2.47;1.60;;;15.50;77.80;;;;;;5047590;28;20025;-86
2021/12/30 11:43:16;;;;;;;2.33;1.77;;;15.60;77.80;;;;;;5036365;28;20132;-86
2021/12/30 11:45:44;;;;;;;3.90;1.92;;;15.60;77.80;;;;;;5034689;28;20041;-86
2021/12/30 11:48:38;;;;;;;3.47;1.90;;;15.60;77.80;;;;;;5046515;28;20457;-87
2021/12/30 11:51:12;;;;;;;3.35;1.65;;;15.60;77.90;;;;;;5071784;28;20035;-85
2021/12/30 11:53:39;;;;;;;2.38;1.75;;;15.60;77.70;;;;;;5071234;28;20043;-83
2021/12/30 11:56:22;;;;;;;2.83;1.85;;;15.60;77.70;;;;;;5051227;28;20029;-84
2021/12/30 11:58:56;;;;;;;2.28;1.73;;;15.60;77.80;;;;;;5055666;28;20025;-83
2021/12/30 12:01:23;;;;;;;2.85;1.70;;;15.60;77.70;;;;;;5062418;28;20033;-83
2021/12/30 12:04:10;;;;;;;3.33;1.90;;;15.70;77.70;;;;;;5066232;28;20047;-82
2021/12/30 12:06:40;;;;;;;2.70;1.67;;;15.70;77.90;;;;;;5071334;28;20059;-82
2021/12/30 12:09:32;;;;;;;2.58;2.00;;;15.70;77.70;;;;;;5055452;28;20028;-82
2021/12/30 12:12:09;;;;;;;3.40;1.65;;;15.70;77.80;;;;;;5073040;28;20037;-83
2021/12/30 12:14:59;;;;;;;2.80;1.58;;;15.70;77.80;;;;;;5045957;28;20047;-82
2021/12/30 12:17:45;;;;;;;2.85;1.58;;;15.70;77.90;;;;;;5110065;27;20449;-84
2021/12/30 12:20:22;;;;;;;2.88;1.70;;;15.70;77.70;;;;;;5092422;28;20036;-85
2021/12/30 12:22:48;;;;;;;2.95;1.60;;;15.70;77.70;;;;;;5110448;28;20024;-83
2021/12/30 12:25:20;;;;;;;2.38;1.50;;;15.70;77.70;;;;;;5075964;28;20103;-82
2021/12/30 12:27:52;;;;;;;3.63;1.55;;;15.70;77.70;;;;;;5109346;28;20046;-83
2021/12/30 12:30:23;;;;;;;3.60;1.65;;;15.70;77.70;;;;;;5117888;28;20047;-83
2021/12/30 12:32:49;;;;;;;3.75;2.05;;;15.80;77.80;;;;;;5100986;28;20027;-83
2021/12/30 12:35:18;;;;;;;2.35;1.60;;;15.80;77.70;;;;;;5116806;28;20024;-86
2021/12/30 12:37:47;;;;;;;2.42;1.70;;;15.80;77.70;;;;;;5108823;28;20024;-84
2021/12/30 12:40:16;;;;;;;2.55;1.75;;;15.80;77.70;;;;;;5088938;28;20017;-82
2021/12/30 12:42:51;;;;;;;2.90;1.67;;;15.80;77.70;;;;;;5096878;28;20024;-83
2021/12/30 12:45:44;;;;;;;2.13;1.55;;;15.80;77.80;;;;;;5095301;28;20027;-84
2021/12/30 12:48:20;;;;;;;2.70;1.77;;;15.80;77.70;;;;;;5118584;28;20038;-82
2021/12/30 12:50:58;;;;;;;3.03;1.67;;;15.80;77.70;;;;;;5117332;28;20034;-82
2021/12/30 12:53:24;;;;;;;2.47;1.50;;;15.80;77.70;;;;;;5103812;28;20081;-82
2021/12/30 12:56:03;;;;;;;3.03;1.67;;;15.80;77.70;;;;;;5090708;28;20032;-83
2021/12/30 12:58:45;;;;;;;2.45;1.58;;;15.80;77.70;;;;;;5117539;28;20128;-82
2021/12/30 13:01:18;;;;;;;2.28;1.67;;;15.80;77.80;;;;;;5100675;28;20665;-85
2021/12/30 13:03:44;;;;;;;2.15;1.42;;;15.90;77.70;;;;;;5095156;28;20027;-82
2021/12/30 13:06:23;;;;;;;2.20;1.50;;;15.90;78.30;;;;;;5102237;28;20524;-89
2021/12/30 13:08:50;;;;;;;1.77;1.38;;;15.90;77.80;;;;;;5109233;28;20024;-83
2021/12/30 13:11:38;;;;;;;3.10;1.70;;;15.90;77.70;;;;;;5099263;28;20403;-84
2021/12/30 13:14:25;;;;;;;3.05;1.40;;;15.90;77.80;;;;;;5093192;28;20038;-83
2021/12/30 13:16:56;;;;;;;2.75;1.60;;;15.90;77.80;;;;;;5078931;28;20045;-82
2021/12/30 13:19:30;;;;;;;2.40;1.55;;;15.90;77.60;;;;;;5099532;28;20035;-84
2021/12/30 13:22:02;;;;;;;3.60;1.48;;;15.90;77.70;;;;;;5112808;27;20016;-84
2021/12/30 13:24:31;;;;;;;2.22;1.65;;;15.90;77.70;;;;;;5095531;28;20031;-83
2021/12/30 13:26:58;;;;;;;2.72;1.70;;;16.00;77.70;;;;;;5103538;28;20031;-85
2021/12/30 13:29:29;;;;;;;2.78;1.50;;;16.00;77.70;;;;;;5074540;28;20028;-83
2021/12/30 13:32:08;;;;;;;2.33;1.63;;;16.00;77.70;;;;;;5102642;28;20031;-83
2021/12/30 13:34:51;;;;;;;1.80;1.42;;;16.00;77.70;;;;;;5094231;28;20035;-83
2021/12/30 13:37:21;;;;;;;3.47;1.60;;;16.00;77.70;;;;;;5082197;28;20041;-83
2021/12/30 13:39:48;;;;;;;2.70;1.50;;;16.00;77.60;;;;;;5091458;28;20032;-84
2021/12/30 13:42:18;;;;;;;2.35;1.38;;;16.00;77.60;;;;;;5093666;28;20016;-84
2021/12/30 13:44:52;;;;;;;2.42;1.42;;;16.00;77.70;;;;;;5085456;28;20035;-88
2021/12/30 13:47:32;;;;;;;2.35;1.50;;;16.00;77.60;;;;;;5102611;28;20020;-83
2021/12/30 13:49:58;;;;;;;1.50;1.40;;;16.00;77.60;;;;;;5102750;28;20028;-82
2021/12/30 13:52:28;;;;;;;2.85;1.65;;;16.00;77.60;;;;;;5077541;28;20038;-83
2021/12/30 13:55:15;;;;;;;3.17;1.65;;;16.00;77.60;;;;;;5077070;28;20028;-83
2021/12/30 13:57:46;;;;;;;1.90;1.42;;;16.00;77.70;;;;;;5087044;28;20032;-84
2021/12/30 14:00:16;;;;;;;2.47;1.40;;;16.10;77.60;;;;;;5084939;28;20023;-84
2021/12/30 14:02:42;;;;;;;2.38;1.35;;;16.10;77.60;;;;;;5086790;28;20020;-85
2021/12/30 14:05:14;;;;;;;2.20;1.38;;;16.10;77.60;;;;;;5061282;28;20024;-83